sensor_id;sensor_type;location;lat;lon;timestamp;pressure;altitude;pressure_sealevel;temperature;humidity
15066;BME280;7632;64.944;20.038;2024-02-28T01:46:49;98575.97;;;-0.92;100.00
15066;BME280;7632;64.944;20.038;2024-02-28T01:49:16;98572.38;;;-1.03;100.00
15066;BME280;7632;64.944;20.038;2024-02-28T01:51:44;98571.91;;;-0.85;100.00
15066;BME280;7632;64.944;20.038;2024-02-28T01:54:13;98566.19;;;-0.78;100.00
15066;BME280;7632;64.944;20.038;2024-02-28T01:56:41;98562.81;;;-0.78;100.00
15066;BME280;7632;64.944;20.038;2024-02-28T01:59:10;98570.91;;;-0.92;100.00
15066;BME280;7632;64.944;20.038;2024-02-28T02:01:37;98570.88;;;-0.95;100.00
15066;BME280;7632;64.944;20.038;2024-02-28T02:04:06;98574.31;;;-0.90;100.00
15066;BME280;7632;64.944;20.038;2024-02-28T02:06:33;98572.81;;;-0.81;100.00
15066;BME280;7632;64.944;20.038;2024-02-28T02:09:04;98565.03;;;-0.92;100.00
15066;BME280;7632;64.944;20.038;2024-02-28T02:11:31;98565.97;;;-0.89;100.00
15066;BME280;7632;64.944;20.038;2024-02-28T02:13:58;98564.91;;;-0.98;100.00
15066;BME280;7632;64.944;20.038;2024-02-28T02:16:25;98549.00;;;-0.96;100.00
15066;BME280;7632;64.944;20.038;2024-02-28T02:18:52;98555.88;;;-0.89;100.00
15066;BME280;7632;64.944;20.038;2024-02-28T02:21:23;98559.31;;;-0.83;100.00
15066;BME280;7632;64.944;20.038;2024-02-28T02:23:51;98552.38;;;-0.94;100.00
15066;BME280;7632;64.944;20.038;2024-02-28T02:26:18;98546.69;;;-0.87;100.00
15066;BME280;7632;64.944;20.038;2024-02-28T02:28:45;98540.53;;;-0.98;100.00
15066;BME280;7632;64.944;20.038;2024-02-28T02:31:13;98552.91;;;-0.69;100.00
15066;BME280;7632;64.944;20.038;2024-02-28T02:33:40;98552.97;;;-0.66;100.00
15066;BME280;7632;64.944;20.038;2024-02-28T02:36:07;98553.00;;;-0.65;100.00
15066;BME280;7632;64.944;20.038;2024-02-28T02:38:34;98546.19;;;-0.69;100.00
15066;BME280;7632;64.944;20.038;2024-02-28T02:41:03;98548.88;;;-0.61;100.00
15066;BME280;7632;64.944;20.038;2024-02-28T02:43:29;98544.53;;;-0.68;100.00
15066;BME280;7632;64.944;20.038;2024-02-28T02:45:56;98544.47;;;-0.71;100.00
15066;BME280;7632;64.944;20.038;2024-02-28T02:48:23;98546.34;;;-0.61;100.00
15066;BME280;7632;64.944;20.038;2024-02-28T02:50:50;98542.91;;;-0.66;100.00
15066;BME280;7632;64.944;20.038;2024-02-28T02:53:17;98535.09;;;-0.78;100.00
15066;BME280;7632;64.944;20.038;2024-02-28T02:55:44;98534.00;;;-0.90;100.00
15066;BME280;7632;64.944;20.038;2024-02-28T02:58:12;98546.94;;;-0.73;100.00
15066;BME280;7632;64.944;20.038;2024-02-28T03:00:39;98543.69;;;-0.69;100.00
15066;BME280;7632;64.944;20.038;2024-02-28T03:03:06;98537.00;;;-0.65;100.00
15066;BME280;7632;64.944;20.038;2024-02-28T03:05:33;98537.91;;;-0.62;100.00
15066;BME280;7632;64.944;20.038;2024-02-28T03:08:00;98544.66;;;-0.62;100.00
15066;BME280;7632;64.944;20.038;2024-02-28T03:10:27;98538.81;;;-0.60;100.00
15066;BME280;7632;64.944;20.038;2024-02-28T03:12:55;98532.19;;;-0.56;100.00
15066;BME280;7632;64.944;20.038;2024-02-28T03:15:23;98525.44;;;-0.56;100.00
15066;BME280;7632;64.944;20.038;2024-02-28T03:17:50;98526.13;;;-0.64;100.00
15066;BME280;7632;64.944;20.038;2024-02-28T03:20:17;98526.28;;;-0.55;100.00
15066;BME280;7632;64.944;20.038;2024-02-28T03:22:44;98527.19;;;-0.53;100.00
15066;BME280;7632;64.944;20.038;2024-02-28T03:25:10;98525.38;;;-0.59;100.00
15066;BME280;7632;64.944;20.038;2024-02-28T03:27:37;98531.47;;;-0.49;100.00
15066;BME280;7632;64.944;20.038;2024-02-28T03:30:05;98527.19;;;-0.52;100.00
15066;BME280;7632;64.944;20.038;2024-02-28T03:32:34;98531.47;;;-0.49;100.00
15066;BME280;7632;64.944;20.038;2024-02-28T03:35:01;98523.88;;;-0.49;100.00
15066;BME280;7632;64.944;20.038;2024-02-28T03:37:29;98505.22;;;-0.59;100.00
15066;BME280;7632;64.944;20.038;2024-02-28T03:39:56;98518.81;;;-0.52;100.00
15066;BME280;7632;64.944;20.038;2024-02-28T03:42:23;98523.13;;;-0.45;100.00
15066;BME280;7632;64.944;20.038;2024-02-28T03:44:50;98512.13;;;-0.49;100.00
15066;BME280;7632;64.944;20.038;2024-02-28T03:47:17;98514.44;;;-0.59;100.00
15066;BME280;7632;64.944;20.038;2024-02-28T03:49:45;98518.63;;;-0.60;100.00
15066;BME280;7632;64.944;20.038;2024-02-28T03:52:12;98514.56;;;-0.53;100.00
15066;BME280;7632;64.944;20.038;2024-02-28T03:54:42;98517.09;;;-0.53;100.00
15066;BME280;7632;64.944;20.038;2024-02-28T03:57:09;98511.03;;;-0.61;100.00
15066;BME280;7632;64.944;20.038;2024-02-28T03:59:35;98510.38;;;-0.53;100.00
15066;BME280;7632;64.944;20.038;2024-02-28T04:02:03;98510.47;;;-0.48;100.00
15066;BME280;7632;64.944;20.038;2024-02-28T04:04:30;98509.59;;;-0.50;100.00
15066;BME280;7632;64.944;20.038;2024-02-28T04:06:58;98499.06;;;-0.73;100.00
15066;BME280;7632;64.944;20.038;2024-02-28T04:09:25;98512.63;;;-0.66;100.00
15066;BME280;7632;64.944;20.038;2024-02-28T04:11:51;98504.44;;;-0.56;100.00
15066;BME280;7632;64.944;20.038;2024-02-28T04:14:18;98512.16;;;-0.47;100.00
15066;BME280;7632;64.944;20.038;2024-02-28T04:16:45;98507.88;;;-0.51;100.00
15066;BME280;7632;64.944;20.038;2024-02-28T04:19:13;98507.94;;;-0.48;100.00
15066;BME280;7632;64.944;20.038;2024-02-28T04:21:39;98499.56;;;-0.47;100.00
15066;BME280;7632;64.944;20.038;2024-02-28T04:24:08;98501.19;;;-0.49;100.00
15066;BME280;7632;64.944;20.038;2024-02-28T04:26:35;98502.47;;;-0.69;100.00
15066;BME280;7632;64.944;20.038;2024-02-28T04:29:02;98499.28;;;-0.62;100.00
15066;BME280;7632;64.944;20.038;2024-02-28T04:31:31;98501.03;;;-0.58;100.00
15066;BME280;7632;64.944;20.038;2024-02-28T04:33:58;98491.09;;;-0.49;100.00
15066;BME280;7632;64.944;20.038;2024-02-28T04:36:24;98496.09;;;-0.52;100.00
15066;BME280;7632;64.944;20.038;2024-02-28T04:38:54;98499.47;;;-0.52;100.00
15066;BME280;7632;64.944;20.038;2024-02-28T04:41:22;98476.47;;;-0.68;100.00
15066;BME280;7632;64.944;20.038;2024-02-28T04:43:49;98494.50;;;-0.47;100.00
15066;BME280;7632;64.944;20.038;2024-02-28T04:46:15;98480.31;;;-0.42;100.00
15066;BME280;7632;64.944;20.038;2024-02-28T04:48:43;98496.22;;;-0.46;100.00
15066;BME280;7632;64.944;20.038;2024-02-28T04:51:10;98496.25;;;-0.43;100.00
15066;BME280;7632;64.944;20.038;2024-02-28T04:53:36;98495.75;;;-0.70;100.00
15066;BME280;7632;64.944;20.038;2024-02-28T04:56:06;98499.31;;;-0.59;100.00
15066;BME280;7632;64.944;20.038;2024-02-28T04:58:35;98499.16;;;-0.68;100.00
15066;BME280;7632;64.944;20.038;2024-02-28T05:01:02;98493.16;;;-0.73;100.00
15066;BME280;7632;64.944;20.038;2024-02-28T05:03:29;98494.34;;;-0.56;100.00
15066;BME280;7632;64.944;20.038;2024-02-28T05:05:56;98492.81;;;-0.48;100.00
15066;BME280;7632;64.944;20.038;2024-02-28T05:08:23;98500.28;;;-0.53;100.00
15066;BME280;7632;64.944;20.038;2024-02-28T05:10:51;98486.06;;;-0.49;100.00
15066;BME280;7632;64.944;20.038;2024-02-28T05:13:18;98474.19;;;-0.56;100.00
15066;BME280;7632;64.944;20.038;2024-02-28T05:15:48;98486.03;;;-0.52;100.00
15066;BME280;7632;64.944;20.038;2024-02-28T05:18:16;98485.94;;;-0.55;100.00
15066;BME280;7632;64.944;20.038;2024-02-28T05:20:43;98485.09;;;-0.56;100.00
15066;BME280;7632;64.944;20.038;2024-02-28T05:23:10;98491.97;;;-0.47;100.00
15066;BME280;7632;64.944;20.038;2024-02-28T05:25:37;98482.50;;;-0.60;100.00
15066;BME280;7632;64.944;20.038;2024-02-28T05:28:04;98491.09;;;-0.49;100.00
15066;BME280;7632;64.944;20.038;2024-02-28T05:30:31;98480.09;;;-0.54;100.00
15066;BME280;7632;64.944;20.038;2024-02-28T05:33:00;98487.00;;;-0.44;100.00
15066;BME280;7632;64.944;20.038;2024-02-28T05:35:26;98484.38;;;-0.50;100.00
15066;BME280;7632;64.944;20.038;2024-02-28T05:37:54;98490.13;;;-0.57;100.00
15066;BME280;7632;64.944;20.038;2024-02-28T05:40:21;98487.81;;;-0.45;100.00
15066;BME280;7632;64.944;20.038;2024-02-28T05:42:48;98486.19;;;-0.43;100.00
15066;BME280;7632;64.944;20.038;2024-02-28T05:45:14;98485.38;;;-0.42;100.00
15066;BME280;7632;64.944;20.038;2024-02-28T05:47:41;98490.38;;;-0.44;100.00
15066;BME280;7632;64.944;20.038;2024-02-28T05:50:10;98487.78;;;-0.48;100.00
15066;BME280;7632;64.944;20.038;2024-02-28T05:52:38;98497.75;;;-0.54;100.00
15066;BME280;7632;64.944;20.038;2024-02-28T05:55:07;98490.22;;;-0.53;100.00
15066;BME280;7632;64.944;20.038;2024-02-28T05:57:34;98487.72;;;-0.50;100.00
15066;BME280;7632;64.944;20.038;2024-02-28T06:00:02;98486.03;;;-0.52;100.00
15066;BME280;7632;64.944;20.038;2024-02-28T06:02:35;98484.25;;;-0.56;100.00
15066;BME280;7632;64.944;20.038;2024-02-28T06:05:02;98480.97;;;-0.52;100.00
15066;BME280;7632;64.944;20.038;2024-02-28T06:07:30;98478.59;;;-0.45;100.00
15066;BME280;7632;64.944;20.038;2024-02-28T06:09:57;98476.16;;;-0.40;100.00
15066;BME280;7632;64.944;20.038;2024-02-28T06:12:25;98479.44;;;-0.44;100.00
15066;BME280;7632;64.944;20.038;2024-02-28T06:14:51;98464.22;;;-0.50;100.00
15066;BME280;7632;64.944;20.038;2024-02-28T06:17:20;98457.63;;;-0.42;100.00
15066;BME280;7632;64.944;20.038;2024-02-28T06:19:47;98456.13;;;-0.31;100.00
15066;BME280;7632;64.944;20.038;2024-02-28T06:22:13;98461.97;;;-0.34;100.00
15066;BME280;7632;64.944;20.038;2024-02-28T06:24:42;98457.56;;;-0.45;100.00
15066;BME280;7632;64.944;20.038;2024-02-28T06:27:08;98449.06;;;-0.50;100.00
15066;BME280;7632;64.944;20.038;2024-02-28T06:29:38;98461.13;;;-0.34;100.00
15066;BME280;7632;64.944;20.038;2024-02-28T06:32:05;98469.47;;;-0.38;100.00
15066;BME280;7632;64.944;20.038;2024-02-28T06:34:32;98459.41;;;-0.35;100.00
15066;BME280;7632;64.944;20.038;2024-02-28T06:36:58;98462.84;;;-0.32;100.00
15066;BME280;7632;64.944;20.038;2024-02-28T06:39:25;98462.81;;;-0.33;100.00
15066;BME280;7632;64.944;20.038;2024-02-28T06:41:53;98459.53;;;-0.29;100.00
15066;BME280;7632;64.944;20.038;2024-02-28T06:44:20;98465.47;;;-0.26;100.00
15066;BME280;7632;64.944;20.038;2024-02-28T06:46:47;98459.53;;;-0.28;100.00
15066;BME280;7632;64.944;20.038;2024-02-28T06:49:14;98457.78;;;-0.33;100.00
15066;BME280;7632;64.944;20.038;2024-02-28T06:51:43;98449.41;;;-0.32;100.00
15066;BME280;7632;64.944;20.038;2024-02-28T06:54:11;98453.72;;;-0.25;100.00
15066;BME280;7632;64.944;20.038;2024-02-28T06:56:37;98447.84;;;-0.24;100.00
15066;BME280;7632;64.944;20.038;2024-02-28T06:59:06;98444.47;;;-0.26;100.00
15066;BME280;7632;64.944;20.038;2024-02-28T07:01:33;98442.91;;;-0.18;100.00
15066;BME280;7632;64.944;20.038;2024-02-28T07:04:00;98448.09;;;-0.09;100.00
15066;BME280;7632;64.944;20.038;2024-02-28T07:06:27;98452.16;;;-0.17;100.00
15066;BME280;7632;64.944;20.038;2024-02-28T07:08:53;98461.38;;;-0.19;100.00
15066;BME280;7632;64.944;20.038;2024-02-28T07:11:20;98463.81;;;-0.25;100.00
15066;BME280;7632;64.944;20.038;2024-02-28T07:13:47;98463.81;;;-0.25;100.00
15066;BME280;7632;64.944;20.038;2024-02-28T07:16:16;98459.63;;;-0.23;100.00
15066;BME280;7632;64.944;20.038;2024-02-28T07:18:43;98462.28;;;-0.16;100.00
15066;BME280;7632;64.944;20.038;2024-02-28T07:21:09;98464.94;;;-0.08;100.00
15066;BME280;7632;64.944;20.038;2024-02-28T07:23:39;98453.69;;;-0.27;100.00
15066;BME280;7632;64.944;20.038;2024-02-28T07:26:05;98456.31;;;-0.21;100.00
15066;BME280;7632;64.944;20.038;2024-02-28T07:28:32;98459.53;;;-0.29;100.00
15066;BME280;7632;64.944;20.038;2024-02-28T07:30:59;98461.16;;;-0.31;100.00
15066;BME280;7632;64.944;20.038;2024-02-28T07:33:27;98456.09;;;-0.34;100.00
15066;BME280;7632;64.944;20.038;2024-02-28T07:35:54;98457.94;;;-0.24;100.00
15066;BME280;7632;64.944;20.038;2024-02-28T07:38:26;98459.06;;;-0.07;100.00
15066;BME280;7632;64.944;20.038;2024-02-28T07:40:53;98461.59;;;-0.07;100.00
15066;BME280;7632;64.944;20.038;2024-02-28T07:43:20;98457.44;;;-0.04;100.00
15066;BME280;7632;64.944;20.038;2024-02-28T07:45:47;98456.59;;;-0.04;100.00
15066;BME280;7632;64.944;20.038;2024-02-28T07:48:13;98451.94;;;-0.31;100.00
15066;BME280;7632;64.944;20.038;2024-02-28T07:50:44;98466.44;;;-0.19;100.00
15066;BME280;7632;64.944;20.038;2024-02-28T07:53:11;98454.91;;;-0.05;100.00
15066;BME280;7632;64.944;20.038;2024-02-28T07:55:38;98459.91;;;-0.08;100.00
15066;BME280;7632;64.944;20.038;2024-02-28T07:58:05;98437.91;;;-0.15;100.00
15066;BME280;7632;64.944;20.038;2024-02-28T08:00:32;98440.69;;;0.00;100.00
15066;BME280;7632;64.944;20.038;2024-02-28T08:02:59;98452.47;;;0.03;100.00
15066;BME280;7632;64.944;20.038;2024-02-28T08:05:26;98449.16;;;0.04;100.00
15066;BME280;7632;64.944;20.038;2024-02-28T08:07:54;98450.16;;;0.16;100.00
15066;BME280;7632;64.944;20.038;2024-02-28T08:10:21;98450.13;;;0.13;100.00
15066;BME280;7632;64.944;20.038;2024-02-28T08:12:48;98451.00;;;0.15;100.00
15066;BME280;7632;64.944;20.038;2024-02-28T08:15:15;98441.69;;;0.11;100.00
15066;BME280;7632;64.944;20.038;2024-02-28T08:17:42;98441.72;;;0.14;100.00
15066;BME280;7632;64.944;20.038;2024-02-28T08:20:09;98431.66;;;0.16;100.00
15066;BME280;7632;64.944;20.038;2024-02-28T08:22:36;98436.91;;;0.29;100.00
15066;BME280;7632;64.944;20.038;2024-02-28T08:25:05;98435.28;;;0.34;100.00
15066;BME280;7632;64.944;20.038;2024-02-28T08:27:32;98425.28;;;0.40;100.00
15066;BME280;7632;64.944;20.038;2024-02-28T08:30:00;98432.13;;;0.47;100.00
15066;BME280;7632;64.944;20.038;2024-02-28T08:32:27;98421.78;;;0.32;100.00
15066;BME280;7632;64.944;20.038;2024-02-28T08:34:53;98416.09;;;0.44;100.00
15066;BME280;7632;64.944;20.038;2024-02-28T08:37:21;98429.63;;;0.50;100.00
15066;BME280;7632;64.944;20.038;2024-02-28T08:39:48;98435.56;;;0.52;100.00
15066;BME280;7632;64.944;20.038;2024-02-28T08:42:16;98443.66;;;0.30;100.00
15066;BME280;7632;64.944;20.038;2024-02-28T08:44:44;98435.47;;;0.46;100.00
15066;BME280;7632;64.944;20.038;2024-02-28T08:47:13;98440.59;;;0.52;100.00
15066;BME280;7632;64.944;20.038;2024-02-28T08:49:40;98447.38;;;0.53;100.00
15066;BME280;7632;64.944;20.038;2024-02-28T08:52:07;98441.72;;;0.14;100.00
15066;BME280;7632;64.944;20.038;2024-02-28T08:54:34;98432.84;;;0.37;100.00
15066;BME280;7632;64.944;20.038;2024-02-28T08:57:00;98426.13;;;0.41;100.00
15066;BME280;7632;64.944;20.038;2024-02-28T08:59:29;98427.03;;;0.44;100.00
15066;BME280;7632;64.944;20.038;2024-02-28T09:01:55;98426.19;;;0.44;100.00
15066;BME280;7632;64.944;20.038;2024-02-28T09:04:22;98422.81;;;0.43;100.00
15066;BME280;7632;64.944;20.038;2024-02-28T09:06:49;98421.09;;;0.42;100.00
15066;BME280;7632;64.944;20.038;2024-02-28T09:09:18;98418.63;;;0.45;100.00
15066;BME280;7632;64.944;20.038;2024-02-28T09:11:45;98415.41;;;0.55;100.00
15066;BME280;7632;64.944;20.038;2024-02-28T09:14:12;98418.91;;;0.68;100.00
15066;BME280;7632;64.944;20.038;2024-02-28T09:16:40;98418.97;;;0.69;100.00
15066;BME280;7632;64.944;20.038;2024-02-28T09:19:07;98415.66;;;0.73;100.00
15066;BME280;7632;64.944;20.038;2024-02-28T09:21:34;98418.75;;;0.54;100.00
15066;BME280;7632;64.944;20.038;2024-02-28T09:24:01;98415.59;;;0.70;100.00
15066;BME280;7632;64.944;20.038;2024-02-28T09:26:28;98415.72;;;0.79;100.00
15066;BME280;7632;64.944;20.038;2024-02-28T09:28:54;98408.22;;;0.87;100.00
15066;BME280;7632;64.944;20.038;2024-02-28T09:31:21;98383.75;;;0.84;100.00
15066;BME280;7632;64.944;20.038;2024-02-28T09:33:49;98385.41;;;0.82;100.00
15066;BME280;7632;64.944;20.038;2024-02-28T09:36:16;98407.38;;;0.86;100.00
15066;BME280;7632;64.944;20.038;2024-02-28T09:38:43;98408.31;;;0.95;100.00
15066;BME280;7632;64.944;20.038;2024-02-28T09:41:14;98405.91;;;1.04;100.00
15066;BME280;7632;64.944;20.038;2024-02-28T09:43:41;98400.97;;;1.16;100.00
15066;BME280;7632;64.944;20.038;2024-02-28T09:46:08;98405.91;;;1.05;100.00
15066;BME280;7632;64.944;20.038;2024-02-28T09:48:38;98395.88;;;1.13;100.00
15066;BME280;7632;64.944;20.038;2024-02-28T09:51:08;98396.72;;;1.12;100.00
15066;BME280;7632;64.944;20.038;2024-02-28T09:53:35;98397.75;;;1.30;100.00
15066;BME280;7632;64.944;20.038;2024-02-28T09:56:03;98394.22;;;1.15;100.00
15066;BME280;7632;64.944;20.038;2024-02-28T09:58:30;98385.59;;;0.98;100.00
15066;BME280;7632;64.944;20.038;2024-02-28T10:00:59;98379.97;;;1.24;100.00
15066;BME280;7632;64.944;20.038;2024-02-28T10:03:29;98377.50;;;1.27;100.00
15066;BME280;7632;64.944;20.038;2024-02-28T10:05:57;98378.50;;;1.46;100.00
15066;BME280;7632;64.944;20.038;2024-02-28T10:08:25;98379.41;;;1.51;100.00
15066;BME280;7632;64.944;20.038;2024-02-28T10:10:52;98366.53;;;1.28;100.00
15066;BME280;7632;64.944;20.038;2024-02-28T10:13:21;98377.56;;;1.35;100.00
15066;BME280;7632;64.944;20.038;2024-02-28T10:15:49;98376.22;;;1.76;100.00
15066;BME280;7632;64.944;20.038;2024-02-28T10:18:16;98381.38;;;1.85;100.00
15066;BME280;7632;64.944;20.038;2024-02-28T10:20:43;98386.50;;;1.93;100.00
15066;BME280;7632;64.944;20.038;2024-02-28T10:23:10;98389.03;;;1.93;100.00
15066;BME280;7632;64.944;20.038;2024-02-28T10:25:43;98379.72;;;1.87;100.00
15066;BME280;7632;64.944;20.038;2024-02-28T10:28:10;98383.06;;;1.86;100.00
15066;BME280;7632;64.944;20.038;2024-02-28T10:30:39;98372.84;;;1.71;100.00
15066;BME280;7632;64.944;20.038;2024-02-28T10:33:10;98371.91;;;1.63;100.00
15066;BME280;7632;64.944;20.038;2024-02-28T10:35:37;98366.75;;;1.54;100.00
15066;BME280;7632;64.944;20.038;2024-02-28T10:38:05;98358.50;;;1.74;100.00
15066;BME280;7632;64.944;20.038;2024-02-28T10:40:32;98371.25;;;1.85;100.00
15066;BME280;7632;64.944;20.038;2024-02-28T10:43:02;98379.66;;;1.84;100.00
15066;BME280;7632;64.944;20.038;2024-02-28T13:45:37;98324.88;;;1.91;100.00
15066;BME280;7632;64.944;20.038;2024-02-28T13:48:15;98313.97;;;1.99;100.00
15066;BME280;7632;64.944;20.038;2024-02-28T13:50:43;98312.25;;;1.95;100.00
15066;BME280;7632;64.944;20.038;2024-02-28T13:53:09;98317.44;;;2.13;100.00
15066;BME280;7632;64.944;20.038;2024-02-28T13:55:36;98326.75;;;2.19;100.00
15066;BME280;7632;64.944;20.038;2024-02-28T13:58:04;98329.31;;;2.23;100.00
15066;BME280;7632;64.944;20.038;2024-02-28T14:00:30;98320.81;;;2.18;100.00
15066;BME280;7632;64.944;20.038;2024-02-28T14:02:59;98335.16;;;2.18;100.00
15066;BME280;7632;64.944;20.038;2024-02-28T14:05:26;98314.88;;;2.12;100.00
15066;BME280;7632;64.944;20.038;2024-02-28T14:07:53;98319.78;;;1.85;100.00
15066;BME280;7632;64.944;20.038;2024-02-28T14:10:19;98313.03;;;1.88;100.00
15066;BME280;7632;64.944;20.038;2024-02-28T14:12:47;98293.69;;;1.96;100.00
15066;BME280;7632;64.944;20.038;2024-02-28T14:15:14;98312.34;;;2.07;100.00
15066;BME280;7632;64.944;20.038;2024-02-28T14:17:44;98318.13;;;1.91;100.00
15066;BME280;7632;64.944;20.038;2024-02-28T14:20:12;98318.94;;;1.87;100.00
15066;BME280;7632;64.944;20.038;2024-02-28T14:22:40;98311.41;;;1.95;100.00
15066;BME280;7632;64.944;20.038;2024-02-28T14:25:08;98308.91;;;1.99;100.00
15066;BME280;7632;64.944;20.038;2024-02-28T14:27:37;98316.50;;;2.02;100.00
15066;BME280;7632;64.944;20.038;2024-02-28T14:30:05;98307.19;;;1.98;100.00
15066;BME280;7632;64.944;20.038;2024-02-28T14:32:34;98292.00;;;1.95;100.00
15066;BME280;7632;64.944;20.038;2024-02-28T14:35:02;98297.88;;;1.91;100.00
15066;BME280;7632;64.944;20.038;2024-02-28T14:37:31;98303.03;;;2.03;100.00
15066;BME280;7632;64.944;20.038;2024-02-28T14:39:59;98304.69;;;2.06;100.00
15066;BME280;7632;64.944;20.038;2024-02-28T14:42:26;98313.16;;;2.05;100.00
15066;BME280;7632;64.944;20.038;2024-02-28T14:44:53;98315.66;;;2.00;100.00
15066;BME280;7632;64.944;20.038;2024-02-28T14:47:20;98317.34;;;2.04;100.00
15066;BME280;7632;64.944;20.038;2024-02-28T14:49:47;98315.66;;;2.00;100.00
15066;BME280;7632;64.944;20.038;2024-02-28T14:52:14;98302.09;;;1.89;100.00
15066;BME280;7632;64.944;20.038;2024-02-28T14:54:42;98310.50;;;1.88;100.00
15066;BME280;7632;64.944;20.038;2024-02-28T14:57:10;98307.13;;;1.86;100.00
15066;BME280;7632;64.944;20.038;2024-02-28T14:59:37;98308.88;;;1.93;100.00
15066;BME280;7632;64.944;20.038;2024-02-28T15:02:04;98307.19;;;1.95;100.00
15066;BME280;7632;64.944;20.038;2024-02-28T15:04:31;98307.16;;;1.89;100.00
15066;BME280;7632;64.944;20.038;2024-02-28T15:06:57;98309.66;;;1.85;100.00
15066;BME280;7632;64.944;20.038;2024-02-28T15:09:24;98302.09;;;1.91;100.00
15066;BME280;7632;64.944;20.038;2024-02-28T15:11:52;98299.56;;;1.91;100.00
15066;BME280;7632;64.944;20.038;2024-02-28T15:14:19;98302.94;;;1.93;100.00
15066;BME280;7632;64.944;20.038;2024-02-28T15:16:47;98308.88;;;1.93;100.00
15066;BME280;7632;64.944;20.038;2024-02-28T15:19:13;98307.16;;;1.92;100.00
15066;BME280;7632;64.944;20.038;2024-02-28T15:21:40;98309.69;;;1.91;100.00
15066;BME280;7632;64.944;20.038;2024-02-28T15:24:07;98304.63;;;1.91;100.00
15066;BME280;7632;64.944;20.038;2024-02-28T15:26:35;98315.59;;;1.91;100.00
15066;BME280;7632;64.944;20.038;2024-02-28T15:29:03;98313.84;;;1.84;100.00
15066;BME280;7632;64.944;20.038;2024-02-28T15:31:30;98308.00;;;1.91;100.00
15066;BME280;7632;64.944;20.038;2024-02-28T15:33:57;98323.19;;;1.93;100.00
15066;BME280;7632;64.944;20.038;2024-02-28T15:36:24;98321.50;;;1.90;100.00
15066;BME280;7632;64.944;20.038;2024-02-28T15:38:51;98318.94;;;1.87;100.00
15066;BME280;7632;64.944;20.038;2024-02-28T15:41:18;98322.25;;;1.80;100.00
15066;BME280;7632;64.944;20.038;2024-02-28T15:43:45;98330.72;;;1.82;100.00
15066;BME280;7632;64.944;20.038;2024-02-28T15:46:14;98325.66;;;1.82;100.00
15066;BME280;7632;64.944;20.038;2024-02-28T15:48:40;98331.56;;;1.81;100.00
15066;BME280;7632;64.944;20.038;2024-02-28T15:51:08;98337.44;;;1.80;100.00
15066;BME280;7632;64.944;20.038;2024-02-28T15:53:34;98333.19;;;1.76;100.00
15066;BME280;7632;64.944;20.038;2024-02-28T15:56:03;98339.84;;;1.62;100.00
15066;BME280;7632;64.944;20.038;2024-02-28T15:58:30;98341.56;;;1.66;100.00
15066;BME280;7632;64.944;20.038;2024-02-28T16:00:57;98323.84;;;1.64;100.00
15066;BME280;7632;64.944;20.038;2024-02-28T16:03:26;98327.31;;;1.77;100.00
15066;BME280;7632;64.944;20.038;2024-02-28T16:05:52;98339.03;;;1.63;100.00
15066;BME280;7632;64.944;20.038;2024-02-28T16:08:20;98344.91;;;1.62;100.00
15066;BME280;7632;64.944;20.038;2024-02-28T16:10:50;98337.31;;;1.62;100.00
15066;BME280;7632;64.944;20.038;2024-02-28T16:13:17;98333.97;;;1.66;100.00
15066;BME280;7632;64.944;20.038;2024-02-28T16:15:44;98337.31;;;1.62;100.00
15066;BME280;7632;64.944;20.038;2024-02-28T16:18:11;98333.97;;;1.66;100.00
15066;BME280;7632;64.944;20.038;2024-02-28T16:20:40;98340.63;;;1.55;100.00
15066;BME280;7632;64.944;20.038;2024-02-28T16:23:08;98342.31;;;1.51;100.00
15066;BME280;7632;64.944;20.038;2024-02-28T16:25:36;98345.66;;;1.49;100.00
15066;BME280;7632;64.944;20.038;2024-02-28T16:28:03;98345.59;;;1.46;100.00
15066;BME280;7632;64.944;20.038;2024-02-28T16:30:30;98349.00;;;1.48;100.00
15066;BME280;7632;64.944;20.038;2024-02-28T16:32:58;98350.59;;;1.37;100.00
15066;BME280;7632;64.944;20.038;2024-02-28T16:35:25;98363.25;;;1.37;100.00
15066;BME280;7632;64.944;20.038;2024-02-28T16:37:53;98347.19;;;1.33;100.00
15066;BME280;7632;64.944;20.038;2024-02-28T16:40:20;98357.34;;;1.38;100.00
15066;BME280;7632;64.944;20.038;2024-02-28T16:42:47;98348.94;;;1.39;100.00
15066;BME280;7632;64.944;20.038;2024-02-28T16:45:14;98333.72;;;1.36;100.00
15066;BME280;7632;64.944;20.038;2024-02-28T16:47:41;98343.72;;;1.22;100.00
15066;BME280;7632;64.944;20.038;2024-02-28T16:50:08;98349.31;;;0.93;100.00
15066;BME280;7632;64.944;20.038;2024-02-28T16:52:35;98348.38;;;0.84;100.00
15066;BME280;7632;64.944;20.038;2024-02-28T16:55:04;98338.25;;;0.81;100.00
15066;BME280;7632;64.944;20.038;2024-02-28T16:57:31;98334.00;;;0.80;100.00
15066;BME280;7632;64.944;20.038;2024-02-28T16:59:58;98344.91;;;0.76;100.00
15066;BME280;7632;64.944;20.038;2024-02-28T17:02:25;98350.03;;;0.82;100.00
15066;BME280;7632;64.944;20.038;2024-02-28T17:04:52;98353.13;;;0.60;100.00
15066;BME280;7632;64.944;20.038;2024-02-28T17:07:19;98356.59;;;0.65;100.00
15066;BME280;7632;64.944;20.038;2024-02-28T17:09:46;98344.88;;;0.73;100.00
15066;BME280;7632;64.944;20.038;2024-02-28T17:12:14;98358.34;;;0.72;100.00
15066;BME280;7632;64.944;20.038;2024-02-28T17:14:41;98353.28;;;0.69;100.00
15066;BME280;7632;64.944;20.038;2024-02-28T17:17:08;98358.31;;;0.69;100.00
15066;BME280;7632;64.944;20.038;2024-02-28T17:19:36;98356.69;;;0.74;100.00
15066;BME280;7632;64.944;20.038;2024-02-28T17:22:04;98359.84;;;0.55;100.00
15066;BME280;7632;64.944;20.038;2024-02-28T17:24:32;98358.91;;;0.50;100.00
15066;BME280;7632;64.944;20.038;2024-02-28T17:26:59;98360.00;;;0.69;100.00
15066;BME280;7632;64.944;20.038;2024-02-28T17:29:28;98360.06;;;0.73;100.00
15066;BME280;7632;64.944;20.038;2024-02-28T17:31:56;98354.94;;;0.70;100.00
15066;BME280;7632;64.944;20.038;2024-02-28T17:34:23;98359.94;;;0.64;100.00
15066;BME280;7632;64.944;20.038;2024-02-28T17:36:50;98368.44;;;0.69;100.00
15066;BME280;7632;64.944;20.038;2024-02-28T17:39:17;98369.31;;;0.73;100.00
15066;BME280;7632;64.944;20.038;2024-02-28T17:41:45;98366.69;;;0.65;100.00